createdAt,value
2022-10-23T07:34:54.418Z,17.4
2022-10-23T07:40:17.788Z,17.7
2022-10-23T07:45:43.942Z,18
2022-10-23T07:51:21.627Z,18.3
2022-10-23T07:57:05.496Z,18.8
2022-10-23T08:02:30.909Z,18.4
2022-10-23T08:07:53.008Z,18.4
2022-10-23T08:14:06.196Z,18.5
2022-10-23T08:19:46.871Z,18.5
2022-10-23T08:25:25.057Z,18.5
2022-10-23T08:30:49.003Z,18.6
2022-10-23T08:36:25.798Z,18.6
2022-10-23T08:42:07.326Z,18.8
2022-10-23T08:47:45.338Z,18.9
2022-10-23T09:21:50.736Z,20.1
2022-10-23T09:27:29.096Z,20
2022-10-23T09:33:10.020Z,20.8
2022-10-23T09:38:32.701Z,20.6
2022-10-23T09:44:15.055Z,20.5
2022-10-23T09:49:56.211Z,20.6
2022-10-23T09:55:18.560Z,20.7
2022-10-23T10:00:57.603Z,21.1
2022-10-23T10:06:35.612Z,21.4
2022-10-23T10:12:13.273Z,21.6
2022-10-23T10:17:51.590Z,22.6
2022-10-23T10:23:32.205Z,22.3
2022-10-23T10:29:16.398Z,22
2022-10-23T10:34:59.099Z,22.1
2022-10-23T10:40:39.885Z,22.1
2022-10-23T10:46:02.192Z,21.7
2022-10-23T10:51:41.009Z,21.8
2022-10-23T10:57:20.729Z,22.3
2022-10-23T11:03:02.307Z,22.6
2022-10-23T11:08:55.988Z,22.8
2022-10-23T11:14:41.570Z,22.6
2022-10-23T11:20:21.302Z,22.4
2022-10-23T11:26:02.544Z,23
2022-10-23T11:31:46.664Z,22.7
2022-10-23T11:37:27.098Z,23
2022-10-23T11:42:55.045Z,22.4
2022-10-23T11:48:17.243Z,22.9
2022-10-23T11:54:04.490Z,22.9
2022-10-23T11:59:29.572Z,22.4
2022-10-23T12:04:52.722Z,22.4
2022-10-23T12:10:14.755Z,22.8
2022-10-23T12:16:00.036Z,22.3
2022-10-23T12:21:23.512Z,22.6
2022-10-23T12:27:00.554Z,22.1
2022-10-23T12:32:39.865Z,23.1
2022-10-23T12:38:16.758Z,22.9
2022-10-23T12:43:56.845Z,22.7
2022-10-23T12:49:41.281Z,22.9
2022-10-23T12:55:18.041Z,22.9
2022-10-23T13:00:56.506Z,23.2
2022-10-23T13:06:40.831Z,22.6
2022-10-23T13:12:02.993Z,22.6
2022-10-23T13:17:25.116Z,22.3
2022-10-23T13:22:33.125Z,22.6
2022-10-23T13:27:54.270Z,22.5
